sensor_id;sensor_type;location;lat;lon;timestamp;temperature;humidity
22145;DHT22;11238;48.730;11.566;2023-04-24T00:00:31;11.70;99.90
22145;DHT22;11238;48.730;11.566;2023-04-24T00:02:57;11.80;99.90
22145;DHT22;11238;48.730;11.566;2023-04-24T00:05:24;11.80;99.90
22145;DHT22;11238;48.730;11.566;2023-04-24T00:07:50;11.80;99.90
22145;DHT22;11238;48.730;11.566;2023-04-24T00:10:18;11.70;99.90
22145;DHT22;11238;48.730;11.566;2023-04-24T00:12:44;11.70;99.90
22145;DHT22;11238;48.730;11.566;2023-04-24T00:15:11;11.70;99.90
22145;DHT22;11238;48.730;11.566;2023-04-24T00:17:36;11.70;99.90
22145;DHT22;11238;48.730;11.566;2023-04-24T00:20:03;11.70;99.90
22145;DHT22;11238;48.730;11.566;2023-04-24T00:22:30;11.70;99.90
22145;DHT22;11238;48.730;11.566;2023-04-24T00:24:57;11.70;99.90
22145;DHT22;11238;48.730;11.566;2023-04-24T00:27:23;11.70;99.90
22145;DHT22;11238;48.730;11.566;2023-04-24T00:29:49;11.60;99.90
22145;DHT22;11238;48.730;11.566;2023-04-24T00:32:15;11.60;99.90
22145;DHT22;11238;48.730;11.566;2023-04-24T00:35:03;11.60;99.90
22145;DHT22;11238;48.730;11.566;2023-04-24T00:37:30;11.60;99.90
22145;DHT22;11238;48.730;11.566;2023-04-24T00:39:56;11.50;99.90
22145;DHT22;11238;48.730;11.566;2023-04-24T00:42:22;11.50;99.90
22145;DHT22;11238;48.730;11.566;2023-04-24T00:44:48;11.40;99.90
22145;DHT22;11238;48.730;11.566;2023-04-24T00:47:14;11.40;99.90
22145;DHT22;11238;48.730;11.566;2023-04-24T00:49:40;11.50;99.90
22145;DHT22;11238;48.730;11.566;2023-04-24T00:52:07;11.40;99.90
22145;DHT22;11238;48.730;11.566;2023-04-24T00:54:35;11.40;99.90
22145;DHT22;11238;48.730;11.566;2023-04-24T00:57:03;11.40;99.90
22145;DHT22;11238;48.730;11.566;2023-04-24T00:59:30;11.40;99.90
22145;DHT22;11238;48.730;11.566;2023-04-24T01:01:56;11.40;99.90
22145;DHT22;11238;48.730;11.566;2023-04-24T01:04:22;11.40;99.90
22145;DHT22;11238;48.730;11.566;2023-04-24T01:06:48;11.40;99.90
22145;DHT22;11238;48.730;11.566;2023-04-24T01:09:16;11.40;99.90
22145;DHT22;11238;48.730;11.566;2023-04-24T01:11:43;11.40;99.90
22145;DHT22;11238;48.730;11.566;2023-04-24T01:14:11;11.40;99.90
22145;DHT22;11238;48.730;11.566;2023-04-24T01:16:37;11.40;99.90
22145;DHT22;11238;48.730;11.566;2023-04-24T01:19:06;11.50;99.90
22145;DHT22;11238;48.730;11.566;2023-04-24T01:21:35;11.40;99.90
22145;DHT22;11238;48.730;11.566;2023-04-24T01:24:06;11.30;99.90
22145;DHT22;11238;48.730;11.566;2023-04-24T01:26:32;11.40;99.90
22145;DHT22;11238;48.730;11.566;2023-04-24T01:28:59;11.40;99.90
22145;DHT22;11238;48.730;11.566;2023-04-24T01:31:25;11.40;99.90
22145;DHT22;11238;48.730;11.566;2023-04-24T01:33:51;11.30;99.90
22145;DHT22;11238;48.730;11.566;2023-04-24T01:36:18;11.30;99.90
22145;DHT22;11238;48.730;11.566;2023-04-24T01:38:44;11.30;99.90
22145;DHT22;11238;48.730;11.566;2023-04-24T01:41:10;11.20;99.90
22145;DHT22;11238;48.730;11.566;2023-04-24T01:43:39;11.20;99.90
22145;DHT22;11238;48.730;11.566;2023-04-24T01:46:06;11.10;99.90
22145;DHT22;11238;48.730;11.566;2023-04-24T01:48:35;11.10;99.90
22145;DHT22;11238;48.730;11.566;2023-04-24T01:51:01;11.00;99.90
22145;DHT22;11238;48.730;11.566;2023-04-24T01:53:29;11.10;99.90
22145;DHT22;11238;48.730;11.566;2023-04-24T01:55:55;11.10;99.90
22145;DHT22;11238;48.730;11.566;2023-04-24T01:58:21;11.10;99.90
22145;DHT22;11238;48.730;11.566;2023-04-24T02:00:47;11.20;99.90
22145;DHT22;11238;48.730;11.566;2023-04-24T02:03:13;11.20;99.90
22145;DHT22;11238;48.730;11.566;2023-04-24T02:05:39;11.20;99.90
22145;DHT22;11238;48.730;11.566;2023-04-24T02:08:05;11.30;99.90
22145;DHT22;11238;48.730;11.566;2023-04-24T02:10:30;11.20;99.90
22145;DHT22;11238;48.730;11.566;2023-04-24T02:12:58;11.20;99.90
22145;DHT22;11238;48.730;11.566;2023-04-24T02:15:25;11.20;99.90
22145;DHT22;11238;48.730;11.566;2023-04-24T02:17:51;11.10;99.90
22145;DHT22;11238;48.730;11.566;2023-04-24T02:20:17;11.00;99.90
22145;DHT22;11238;48.730;11.566;2023-04-24T02:22:43;11.00;99.90
22145;DHT22;11238;48.730;11.566;2023-04-24T02:25:08;10.90;99.90
22145;DHT22;11238;48.730;11.566;2023-04-24T02:27:34;10.90;99.90
22145;DHT22;11238;48.730;11.566;2023-04-24T02:30:04;10.90;99.90
22145;DHT22;11238;48.730;11.566;2023-04-24T02:32:30;11.00;99.90
22145;DHT22;11238;48.730;11.566;2023-04-24T02:34:56;11.00;99.90
22145;DHT22;11238;48.730;11.566;2023-04-24T02:37:22;11.00;99.90
22145;DHT22;11238;48.730;11.566;2023-04-24T02:39:48;11.00;99.90
22145;DHT22;11238;48.730;11.566;2023-04-24T02:42:14;11.00;99.90
22145;DHT22;11238;48.730;11.566;2023-04-24T02:44:40;11.00;99.90
22145;DHT22;11238;48.730;11.566;2023-04-24T02:47:06;10.90;99.90
22145;DHT22;11238;48.730;11.566;2023-04-24T02:49:33;10.90;99.90
22145;DHT22;11238;48.730;11.566;2023-04-24T02:51:59;10.90;99.90
22145;DHT22;11238;48.730;11.566;2023-04-24T02:54:26;10.90;99.90
22145;DHT22;11238;48.730;11.566;2023-04-24T02:56:51;10.80;99.90
22145;DHT22;11238;48.730;11.566;2023-04-24T02:59:17;10.80;99.90
22145;DHT22;11238;48.730;11.566;2023-04-24T03:01:43;10.80;99.90
22145;DHT22;11238;48.730;11.566;2023-04-24T03:04:09;10.70;99.90
22145;DHT22;11238;48.730;11.566;2023-04-24T03:06:35;10.70;99.90
22145;DHT22;11238;48.730;11.566;2023-04-24T03:09:02;10.70;99.90
22145;DHT22;11238;48.730;11.566;2023-04-24T03:11:28;10.70;99.90
22145;DHT22;11238;48.730;11.566;2023-04-24T03:13:54;10.70;99.90
22145;DHT22;11238;48.730;11.566;2023-04-24T03:16:20;10.70;99.90
22145;DHT22;11238;48.730;11.566;2023-04-24T03:18:49;10.70;99.90
22145;DHT22;11238;48.730;11.566;2023-04-24T03:21:15;10.70;99.90
22145;DHT22;11238;48.730;11.566;2023-04-24T03:23:41;10.70;99.90
22145;DHT22;11238;48.730;11.566;2023-04-24T03:26:08;10.70;99.90
22145;DHT22;11238;48.730;11.566;2023-04-24T03:28:37;10.70;99.90
22145;DHT22;11238;48.730;11.566;2023-04-24T03:31:04;10.60;99.90
22145;DHT22;11238;48.730;11.566;2023-04-24T03:33:33;10.60;99.90
22145;DHT22;11238;48.730;11.566;2023-04-24T03:36:00;10.60;99.90
22145;DHT22;11238;48.730;11.566;2023-04-24T03:38:33;10.50;99.90
22145;DHT22;11238;48.730;11.566;2023-04-24T03:41:17;10.50;99.90
22145;DHT22;11238;48.730;11.566;2023-04-24T03:43:55;10.50;99.90
22145;DHT22;11238;48.730;11.566;2023-04-24T03:46:21;10.50;99.90
22145;DHT22;11238;48.730;11.566;2023-04-24T03:48:53;10.60;99.90
22145;DHT22;11238;48.730;11.566;2023-04-24T03:51:40;10.60;99.90
22145;DHT22;11238;48.730;11.566;2023-04-24T03:54:20;10.70;99.90
22145;DHT22;11238;48.730;11.566;2023-04-24T03:56:46;10.60;99.90
22145;DHT22;11238;48.730;11.566;2023-04-24T03:59:12;10.60;99.90
22145;DHT22;11238;48.730;11.566;2023-04-24T04:01:40;10.60;99.90
22145;DHT22;11238;48.730;11.566;2023-04-24T04:04:16;10.50;99.90
22145;DHT22;11238;48.730;11.566;2023-04-24T04:06:43;10.60;99.90
22145;DHT22;11238;48.730;11.566;2023-04-24T04:09:13;10.50;99.90
22145;DHT22;11238;48.730;11.566;2023-04-24T04:11:39;10.50;99.90
22145;DHT22;11238;48.730;11.566;2023-04-24T04:14:04;10.50;99.90
22145;DHT22;11238;48.730;11.566;2023-04-24T04:16:32;10.50;99.90
22145;DHT22;11238;48.730;11.566;2023-04-24T04:19:02;10.50;99.90
22145;DHT22;11238;48.730;11.566;2023-04-24T04:21:31;10.40;99.90
22145;DHT22;11238;48.730;11.566;2023-04-24T04:24:08;10.50;99.90
22145;DHT22;11238;48.730;11.566;2023-04-24T04:26:38;10.50;99.90
22145;DHT22;11238;48.730;11.566;2023-04-24T04:29:07;10.40;99.90
22145;DHT22;11238;48.730;11.566;2023-04-24T04:31:37;10.40;99.90
22145;DHT22;11238;48.730;11.566;2023-04-24T04:34:08;10.40;99.90
22145;DHT22;11238;48.730;11.566;2023-04-24T04:36:34;10.40;99.90
22145;DHT22;11238;48.730;11.566;2023-04-24T04:39:15;10.40;99.90
22145;DHT22;11238;48.730;11.566;2023-04-24T04:41:53;10.40;99.90
22145;DHT22;11238;48.730;11.566;2023-04-24T04:44:20;10.40;99.90
22145;DHT22;11238;48.730;11.566;2023-04-24T04:46:47;10.40;99.90
22145;DHT22;11238;48.730;11.566;2023-04-24T04:49:33;10.40;99.90
22145;DHT22;11238;48.730;11.566;2023-04-24T04:51:59;10.40;99.90
22145;DHT22;11238;48.730;11.566;2023-04-24T04:54:26;10.40;99.90
22145;DHT22;11238;48.730;11.566;2023-04-24T04:56:52;10.40;99.90
22145;DHT22;11238;48.730;11.566;2023-04-24T04:59:18;10.40;99.90
22145;DHT22;11238;48.730;11.566;2023-04-24T05:01:45;10.40;99.90
22145;DHT22;11238;48.730;11.566;2023-04-24T05:04:13;10.40;99.90
22145;DHT22;11238;48.730;11.566;2023-04-24T05:06:39;10.40;99.90
22145;DHT22;11238;48.730;11.566;2023-04-24T05:09:05;10.40;99.90
22145;DHT22;11238;48.730;11.566;2023-04-24T05:11:39;10.40;99.90
22145;DHT22;11238;48.730;11.566;2023-04-24T05:14:05;10.40;99.90
22145;DHT22;11238;48.730;11.566;2023-04-24T05:16:35;10.40;99.90
22145;DHT22;11238;48.730;11.566;2023-04-24T05:19:24;10.40;99.90
22145;DHT22;11238;48.730;11.566;2023-04-24T05:21:50;10.50;99.90
22145;DHT22;11238;48.730;11.566;2023-04-24T05:24:17;10.50;99.90
22145;DHT22;11238;48.730;11.566;2023-04-24T05:27:04;10.40;99.90
22145;DHT22;11238;48.730;11.566;2023-04-24T05:29:35;10.30;99.90
22145;DHT22;11238;48.730;11.566;2023-04-24T05:32:03;10.40;99.90
22145;DHT22;11238;48.730;11.566;2023-04-24T05:34:30;10.40;99.90
22145;DHT22;11238;48.730;11.566;2023-04-24T05:36:57;10.40;99.90
22145;DHT22;11238;48.730;11.566;2023-04-24T05:39:23;10.40;99.90
22145;DHT22;11238;48.730;11.566;2023-04-24T05:41:51;10.40;99.90
22145;DHT22;11238;48.730;11.566;2023-04-24T05:44:16;10.40;99.90
22145;DHT22;11238;48.730;11.566;2023-04-24T05:46:42;10.40;99.90
22145;DHT22;11238;48.730;11.566;2023-04-24T05:49:10;10.40;99.90
22145;DHT22;11238;48.730;11.566;2023-04-24T05:51:36;10.50;99.90
22145;DHT22;11238;48.730;11.566;2023-04-24T05:54:02;10.50;99.90
22145;DHT22;11238;48.730;11.566;2023-04-24T05:56:30;10.50;99.90
22145;DHT22;11238;48.730;11.566;2023-04-24T05:58:57;10.50;99.90
22145;DHT22;11238;48.730;11.566;2023-04-24T06:01:24;10.70;99.90
22145;DHT22;11238;48.730;11.566;2023-04-24T06:03:57;10.70;99.90
22145;DHT22;11238;48.730;11.566;2023-04-24T06:06:24;10.70;99.90
22145;DHT22;11238;48.730;11.566;2023-04-24T06:08:51;10.70;99.90
22145;DHT22;11238;48.730;11.566;2023-04-24T06:11:19;10.70;99.90
22145;DHT22;11238;48.730;11.566;2023-04-24T06:13:46;10.80;99.90
22145;DHT22;11238;48.730;11.566;2023-04-24T06:16:42;10.80;99.90
22145;DHT22;11238;48.730;11.566;2023-04-24T06:19:31;10.90;99.90
22145;DHT22;11238;48.730;11.566;2023-04-24T06:21:57;10.90;99.90
22145;DHT22;11238;48.730;11.566;2023-04-24T06:24:27;11.00;99.90
22145;DHT22;11238;48.730;11.566;2023-04-24T06:27:08;10.90;99.90
22145;DHT22;11238;48.730;11.566;2023-04-24T06:29:40;11.10;99.90
22145;DHT22;11238;48.730;11.566;2023-04-24T06:32:05;11.00;99.90
22145;DHT22;11238;48.730;11.566;2023-04-24T06:34:32;11.10;99.90
22145;DHT22;11238;48.730;11.566;2023-04-24T06:36:59;11.10;99.90
22145;DHT22;11238;48.730;11.566;2023-04-24T06:39:25;11.10;99.90
22145;DHT22;11238;48.730;11.566;2023-04-24T06:41:51;11.10;99.90
22145;DHT22;11238;48.730;11.566;2023-04-24T06:44:19;11.10;99.90
22145;DHT22;11238;48.730;11.566;2023-04-24T06:46:45;11.10;99.90
22145;DHT22;11238;48.730;11.566;2023-04-24T06:49:11;11.20;99.90
22145;DHT22;11238;48.730;11.566;2023-04-24T06:51:37;11.10;99.90
22145;DHT22;11238;48.730;11.566;2023-04-24T06:54:03;11.20;99.90
22145;DHT22;11238;48.730;11.566;2023-04-24T06:56:31;11.20;99.90
22145;DHT22;11238;48.730;11.566;2023-04-24T06:58:59;11.20;99.90
22145;DHT22;11238;48.730;11.566;2023-04-24T07:01:45;11.20;99.90
22145;DHT22;11238;48.730;11.566;2023-04-24T07:04:11;11.30;99.90
22145;DHT22;11238;48.730;11.566;2023-04-24T07:06:39;11.30;99.90
22145;DHT22;11238;48.730;11.566;2023-04-24T07:09:05;11.30;99.90
22145;DHT22;11238;48.730;11.566;2023-04-24T07:11:31;11.30;99.90
22145;DHT22;11238;48.730;11.566;2023-04-24T07:14:16;11.40;99.90
22145;DHT22;11238;48.730;11.566;2023-04-24T07:16:42;11.40;99.90
22145;DHT22;11238;48.730;11.566;2023-04-24T07:19:08;11.50;99.90
22145;DHT22;11238;48.730;11.566;2023-04-24T07:21:35;11.50;99.90
22145;DHT22;11238;48.730;11.566;2023-04-24T07:24:01;11.50;99.90
22145;DHT22;11238;48.730;11.566;2023-04-24T07:26:29;11.50;99.90
22145;DHT22;11238;48.730;11.566;2023-04-24T07:28:55;11.50;99.90
22145;DHT22;11238;48.730;11.566;2023-04-24T07:31:21;11.50;99.90
22145;DHT22;11238;48.730;11.566;2023-04-24T07:33:48;11.50;99.90
22145;DHT22;11238;48.730;11.566;2023-04-24T07:36:15;11.50;99.90
22145;DHT22;11238;48.730;11.566;2023-04-24T07:38:46;11.50;99.90
22145;DHT22;11238;48.730;11.566;2023-04-24T07:41:13;11.50;99.90
22145;DHT22;11238;48.730;11.566;2023-04-24T07:43:40;11.40;99.90
22145;DHT22;11238;48.730;11.566;2023-04-24T07:46:07;11.50;99.90
22145;DHT22;11238;48.730;11.566;2023-04-24T07:49:05;11.40;99.90
22145;DHT22;11238;48.730;11.566;2023-04-24T07:51:52;11.40;99.90
22145;DHT22;11238;48.730;11.566;2023-04-24T07:54:17;11.40;99.90
22145;DHT22;11238;48.730;11.566;2023-04-24T07:56:44;11.30;99.90
22145;DHT22;11238;48.730;11.566;2023-04-24T07:59:10;11.20;99.90
22145;DHT22;11238;48.730;11.566;2023-04-24T08:05:41;9.90;99.90
22145;DHT22;11238;48.730;11.566;2023-04-24T08:08:09;9.50;99.90
22145;DHT22;11238;48.730;11.566;2023-04-24T08:10:41;9.40;99.90
22145;DHT22;11238;48.730;11.566;2023-04-24T08:14:01;9.40;99.90
22145;DHT22;11238;48.730;11.566;2023-04-24T08:56:48;10.60;99.90
22145;DHT22;11238;48.730;11.566;2023-04-24T08:59:18;10.80;99.90
22145;DHT22;11238;48.730;11.566;2023-04-24T09:01:45;10.70;99.90
22145;DHT22;11238;48.730;11.566;2023-04-24T09:04:12;11.00;99.90
22145;DHT22;11238;48.730;11.566;2023-04-24T09:06:42;11.20;99.90
22145;DHT22;11238;48.730;11.566;2023-04-24T09:09:10;11.30;99.90
22145;DHT22;11238;48.730;11.566;2023-04-24T09:11:38;11.40;99.90
22145;DHT22;11238;48.730;11.566;2023-04-24T09:14:04;11.50;99.90
22145;DHT22;11238;48.730;11.566;2023-04-24T09:16:31;11.60;99.90
22145;DHT22;11238;48.730;11.566;2023-04-24T09:18:59;11.60;99.90
22145;DHT22;11238;48.730;11.566;2023-04-24T09:21:31;11.70;99.90
22145;DHT22;11238;48.730;11.566;2023-04-24T09:24:00;11.70;99.90
22145;DHT22;11238;48.730;11.566;2023-04-24T09:26:34;11.80;99.90
22145;DHT22;11238;48.730;11.566;2023-04-24T09:29:01;11.70;99.90
22145;DHT22;11238;48.730;11.566;2023-04-24T09:31:28;11.70;99.90
22145;DHT22;11238;48.730;11.566;2023-04-24T09:34:03;11.80;99.90
22145;DHT22;11238;48.730;11.566;2023-04-24T09:36:33;11.70;99.90
22145;DHT22;11238;48.730;11.566;2023-04-24T09:39:01;11.80;99.90
22145;DHT22;11238;48.730;11.566;2023-04-24T09:41:28;11.90;99.90
22145;DHT22;11238;48.730;11.566;2023-04-24T11:01:34;10.40;99.90
22145;DHT22;11238;48.730;11.566;2023-04-24T11:04:03;10.80;99.90
22145;DHT22;11238;48.730;11.566;2023-04-24T11:06:34;11.00;99.90
22145;DHT22;11238;48.730;11.566;2023-04-24T11:09:08;11.30;99.90
22145;DHT22;11238;48.730;11.566;2023-04-24T11:11:37;11.60;99.90
22145;DHT22;11238;48.730;11.566;2023-04-24T11:14:06;11.90;99.90
22145;DHT22;11238;48.730;11.566;2023-04-24T11:16:52;12.10;99.90
22145;DHT22;11238;48.730;11.566;2023-04-24T11:19:22;12.30;99.90
22145;DHT22;11238;48.730;11.566;2023-04-24T11:22:13;12.50;99.90
22145;DHT22;11238;48.730;11.566;2023-04-24T11:27:19;12.70;99.90
22145;DHT22;11238;48.730;11.566;2023-04-24T11:30:08;12.50;99.90
22145;DHT22;11238;48.730;11.566;2023-04-24T11:32:37;12.20;99.90
22145;DHT22;11238;48.730;11.566;2023-04-24T11:35:18;12.20;99.90
22145;DHT22;11238;48.730;11.566;2023-04-24T11:37:47;12.10;99.90
22145;DHT22;11238;48.730;11.566;2023-04-24T11:40:15;12.20;99.90
22145;DHT22;11238;48.730;11.566;2023-04-24T11:42:46;12.20;99.90
22145;DHT22;11238;48.730;11.566;2023-04-24T11:47:42;12.40;99.90
22145;DHT22;11238;48.730;11.566;2023-04-24T11:50:13;12.60;99.90
22145;DHT22;11238;48.730;11.566;2023-04-24T11:52:47;12.80;99.90
22145;DHT22;11238;48.730;11.566;2023-04-24T11:57:43;12.70;99.90
22145;DHT22;11238;48.730;11.566;2023-04-24T12:02:44;13.20;99.90
22145;DHT22;11238;48.730;11.566;2023-04-24T12:05:27;13.40;99.90
22145;DHT22;11238;48.730;11.566;2023-04-24T12:07:54;13.30;97.10
22145;DHT22;11238;48.730;11.566;2023-04-24T12:10:28;13.30;95.40
22145;DHT22;11238;48.730;11.566;2023-04-24T12:12:57;13.40;96.00
22145;DHT22;11238;48.730;11.566;2023-04-24T12:15:27;13.70;97.60
22145;DHT22;11238;48.730;11.566;2023-04-24T12:21:22;14.20;93.80
22145;DHT22;11238;48.730;11.566;2023-04-24T12:23:49;14.50;93.60
22145;DHT22;11238;48.730;11.566;2023-04-24T12:26:18;14.60;93.50
22145;DHT22;11238;48.730;11.566;2023-04-24T12:28:47;14.40;95.90
22145;DHT22;11238;48.730;11.566;2023-04-24T12:31:14;13.80;94.60
22145;DHT22;11238;48.730;11.566;2023-04-24T12:33:40;13.40;96.50
22145;DHT22;11238;48.730;11.566;2023-04-24T12:36:06;13.20;95.60
22145;DHT22;11238;48.730;11.566;2023-04-24T12:38:35;13.00;94.50
22145;DHT22;11238;48.730;11.566;2023-04-24T12:41:09;13.30;97.10
22145;DHT22;11238;48.730;11.566;2023-04-24T12:43:36;13.70;97.30
22145;DHT22;11238;48.730;11.566;2023-04-24T12:46:02;13.80;97.20
22145;DHT22;11238;48.730;11.566;2023-04-24T12:48:29;14.10;96.00
22145;DHT22;11238;48.730;11.566;2023-04-24T12:50:58;14.30;94.70
22145;DHT22;11238;48.730;11.566;2023-04-24T12:53:31;13.90;93.80
22145;DHT22;11238;48.730;11.566;2023-04-24T12:55:57;13.40;93.10
22145;DHT22;11238;48.730;11.566;2023-04-24T12:58:23;13.00;94.30
22145;DHT22;11238;48.730;11.566;2023-04-24T13:00:49;12.90;93.90
22145;DHT22;11238;48.730;11.566;2023-04-24T13:03:14;13.00;95.60
22145;DHT22;11238;48.730;11.566;2023-04-24T13:05:42;13.10;96.00
22145;DHT22;11238;48.730;11.566;2023-04-24T13:08:10;13.20;96.20
22145;DHT22;11238;48.730;11.566;2023-04-24T13:10:35;13.20;94.20
22145;DHT22;11238;48.730;11.566;2023-04-24T13:13:01;13.70;94.50
22145;DHT22;11238;48.730;11.566;2023-04-24T13:15:29;13.80;92.00
22145;DHT22;11238;48.730;11.566;2023-04-24T13:17:55;13.60;91.20
22145;DHT22;11238;48.730;11.566;2023-04-24T13:20:22;13.30;92.40
22145;DHT22;11238;48.730;11.566;2023-04-24T13:22:48;12.80;93.20
22145;DHT22;11238;48.730;11.566;2023-04-24T13:25:13;12.70;92.60
22145;DHT22;11238;48.730;11.566;2023-04-24T13:27:42;12.60;92.70
22145;DHT22;11238;48.730;11.566;2023-04-24T13:30:08;12.60;92.50
22145;DHT22;11238;48.730;11.566;2023-04-24T13:32:34;13.00;92.60
22145;DHT22;11238;48.730;11.566;2023-04-24T13:35:00;13.40;93.40
22145;DHT22;11238;48.730;11.566;2023-04-24T13:37:26;13.40;92.80
22145;DHT22;11238;48.730;11.566;2023-04-24T13:39:52;13.20;91.60
22145;DHT22;11238;48.730;11.566;2023-04-24T13:42:18;13.10;93.30
22145;DHT22;11238;48.730;11.566;2023-04-24T13:45:07;13.00;92.80
22145;DHT22;11238;48.730;11.566;2023-04-24T13:47:33;12.90;90.50
22145;DHT22;11238;48.730;11.566;2023-04-24T13:49:59;13.20;91.70
22145;DHT22;11238;48.730;11.566;2023-04-24T13:52:25;13.40;93.10
22145;DHT22;11238;48.730;11.566;2023-04-24T13:54:51;13.30;90.80
22145;DHT22;11238;48.730;11.566;2023-04-24T13:57:17;13.50;91.70
22145;DHT22;11238;48.730;11.566;2023-04-24T13:59:43;13.40;90.40
22145;DHT22;11238;48.730;11.566;2023-04-24T14:02:12;13.20;90.40
22145;DHT22;11238;48.730;11.566;2023-04-24T14:04:38;13.00;90.90
22145;DHT22;11238;48.730;11.566;2023-04-24T14:07:04;12.90;91.20
22145;DHT22;11238;48.730;11.566;2023-04-24T14:09:30;13.00;90.10
22145;DHT22;11238;48.730;11.566;2023-04-24T14:11:56;13.10;91.70
22145;DHT22;11238;48.730;11.566;2023-04-24T14:14:22;13.10;92.60
22145;DHT22;11238;48.730;11.566;2023-04-24T14:16:48;12.80;89.90
22145;DHT22;11238;48.730;11.566;2023-04-24T14:19:14;12.80;90.00
22145;DHT22;11238;48.730;11.566;2023-04-24T14:21:39;12.80;89.00
22145;DHT22;11238;48.730;11.566;2023-04-24T14:24:05;12.70;90.20
22145;DHT22;11238;48.730;11.566;2023-04-24T14:26:34;12.70;90.60
22145;DHT22;11238;48.730;11.566;2023-04-24T14:29:00;12.70;92.00
22145;DHT22;11238;48.730;11.566;2023-04-24T14:31:26;12.70;90.00
22145;DHT22;11238;48.730;11.566;2023-04-24T14:33:51;12.70;90.50
22145;DHT22;11238;48.730;11.566;2023-04-24T14:36:17;12.60;88.50
22145;DHT22;11238;48.730;11.566;2023-04-24T14:38:43;12.60;90.30
22145;DHT22;11238;48.730;11.566;2023-04-24T14:41:08;12.50;89.10
22145;DHT22;11238;48.730;11.566;2023-04-24T14:43:35;12.50;88.80
22145;DHT22;11238;48.730;11.566;2023-04-24T14:46:02;12.50;90.90
22145;DHT22;11238;48.730;11.566;2023-04-24T14:48:28;12.40;91.20
22145;DHT22;11238;48.730;11.566;2023-04-24T14:50:54;12.40;87.70
22145;DHT22;11238;48.730;11.566;2023-04-24T14:53:20;12.40;90.30
22145;DHT22;11238;48.730;11.566;2023-04-24T14:55:46;12.40;91.60
22145;DHT22;11238;48.730;11.566;2023-04-24T14:58:12;12.40;91.30
22145;DHT22;11238;48.730;11.566;2023-04-24T15:01:00;12.30;88.70
22145;DHT22;11238;48.730;11.566;2023-04-24T15:03:26;12.30;91.10
22145;DHT22;11238;48.730;11.566;2023-04-24T15:05:52;12.30;91.90
22145;DHT22;11238;48.730;11.566;2023-04-24T15:08:18;12.30;91.60
22145;DHT22;11238;48.730;11.566;2023-04-24T15:10:44;12.20;90.30
22145;DHT22;11238;48.730;11.566;2023-04-24T15:13:10;12.20;90.40
22145;DHT22;11238;48.730;11.566;2023-04-24T15:15:36;12.10;89.20
22145;DHT22;11238;48.730;11.566;2023-04-24T15:18:04;12.30;91.40
22145;DHT22;11238;48.730;11.566;2023-04-24T15:20:31;12.30;90.00
22145;DHT22;11238;48.730;11.566;2023-04-24T15:22:57;12.30;90.50
22145;DHT22;11238;48.730;11.566;2023-04-24T15:25:25;12.30;90.40
22145;DHT22;11238;48.730;11.566;2023-04-24T15:27:50;12.20;89.60
22145;DHT22;11238;48.730;11.566;2023-04-24T15:30:16;12.20;90.80
22145;DHT22;11238;48.730;11.566;2023-04-24T15:32:42;12.20;92.10
22145;DHT22;11238;48.730;11.566;2023-04-24T15:35:08;12.10;90.10
22145;DHT22;11238;48.730;11.566;2023-04-24T15:37:56;12.10;91.60
22145;DHT22;11238;48.730;11.566;2023-04-24T15:40:22;12.00;92.10
22145;DHT22;11238;48.730;11.566;2023-04-24T15:42:48;11.90;91.50
22145;DHT22;11238;48.730;11.566;2023-04-24T15:45:14;11.80;92.00
22145;DHT22;11238;48.730;11.566;2023-04-24T15:47:40;11.80;93.20
22145;DHT22;11238;48.730;11.566;2023-04-24T15:50:06;11.80;92.10
22145;DHT22;11238;48.730;11.566;2023-04-24T15:52:34;11.80;92.40
22145;DHT22;11238;48.730;11.566;2023-04-24T15:55:00;11.70;91.70
22145;DHT22;11238;48.730;11.566;2023-04-24T15:57:25;11.80;92.60
22145;DHT22;11238;48.730;11.566;2023-04-24T15:59:52;11.80;91.40
22145;DHT22;11238;48.730;11.566;2023-04-24T16:02:18;11.80;92.50
22145;DHT22;11238;48.730;11.566;2023-04-24T16:04:49;11.80;92.10
22145;DHT22;11238;48.730;11.566;2023-04-24T16:07:16;11.80;91.90
22145;DHT22;11238;48.730;11.566;2023-04-24T16:09:46;11.80;92.50
22145;DHT22;11238;48.730;11.566;2023-04-24T16:12:12;11.80;90.80
22145;DHT22;11238;48.730;11.566;2023-04-24T16:14:38;11.80;92.30
22145;DHT22;11238;48.730;11.566;2023-04-24T16:17:04;11.80;91.10
22145;DHT22;11238;48.730;11.566;2023-04-24T16:19:29;11.70;92.00
22145;DHT22;11238;48.730;11.566;2023-04-24T16:21:56;11.70;91.80
22145;DHT22;11238;48.730;11.566;2023-04-24T16:24:22;11.70;92.30
22145;DHT22;11238;48.730;11.566;2023-04-24T16:26:49;11.70;93.00
22145;DHT22;11238;48.730;11.566;2023-04-24T16:29:16;11.70;92.40
22145;DHT22;11238;48.730;11.566;2023-04-24T16:31:43;11.60;91.90
22145;DHT22;11238;48.730;11.566;2023-04-24T16:34:12;11.60;93.00
22145;DHT22;11238;48.730;11.566;2023-04-24T16:36:38;11.60;92.30
22145;DHT22;11238;48.730;11.566;2023-04-24T16:39:04;11.60;92.90
22145;DHT22;11238;48.730;11.566;2023-04-24T16:41:30;11.60;93.40
22145;DHT22;11238;48.730;11.566;2023-04-24T16:43:56;11.50;93.30
22145;DHT22;11238;48.730;11.566;2023-04-24T16:46:22;11.50;92.70
22145;DHT22;11238;48.730;11.566;2023-04-24T16:48:48;11.40;93.50
22145;DHT22;11238;48.730;11.566;2023-04-24T16:51:14;11.50;92.60
22145;DHT22;11238;48.730;11.566;2023-04-24T16:53:40;11.40;93.80
22145;DHT22;11238;48.730;11.566;2023-04-24T16:56:06;11.40;93.90
22145;DHT22;11238;48.730;11.566;2023-04-24T16:58:32;11.40;94.00
22145;DHT22;11238;48.730;11.566;2023-04-24T17:00:57;11.50;94.40
22145;DHT22;11238;48.730;11.566;2023-04-24T17:03:23;11.40;94.00
22145;DHT22;11238;48.730;11.566;2023-04-24T17:05:50;11.30;93.30
22145;DHT22;11238;48.730;11.566;2023-04-24T17:08:16;11.20;93.00
22145;DHT22;11238;48.730;11.566;2023-04-24T17:10:41;11.00;92.60
22145;DHT22;11238;48.730;11.566;2023-04-24T17:13:08;10.90;92.00
22145;DHT22;11238;48.730;11.566;2023-04-24T17:15:33;10.90;93.30
22145;DHT22;11238;48.730;11.566;2023-04-24T17:18:00;10.90;93.70
22145;DHT22;11238;48.730;11.566;2023-04-24T17:20:27;10.80;94.50
22145;DHT22;11238;48.730;11.566;2023-04-24T17:22:53;10.80;94.10
22145;DHT22;11238;48.730;11.566;2023-04-24T17:25:19;10.80;93.70
22145;DHT22;11238;48.730;11.566;2023-04-24T17:27:46;10.70;95.00
22145;DHT22;11238;48.730;11.566;2023-04-24T17:30:33;10.80;95.20
22145;DHT22;11238;48.730;11.566;2023-04-24T17:33:01;10.70;95.90
22145;DHT22;11238;48.730;11.566;2023-04-24T17:35:27;10.70;94.80
22145;DHT22;11238;48.730;11.566;2023-04-24T17:37:52;10.60;95.60